PWSweather.com
Personal Weather Stations
Station Observations
SHAHALMS1
Eftra, Falkenberg, HA

EftraFalkenberg, HA

Lat: 56.85, Lon: 12.65

Elevation: 140

Station Type:

http://hem.passagen.se/risarp101

High Low Average
Temperature 43.5°F6.4°C 25.3°F-3.7°C 37.1°F2.8°C
Dew Point 38.0°F3.3°C 17.6°F-8.0°C 32.1°F0.1°C
Winds 14.7 mph 23.7 kmh Calm Calm 6.0 mph S9.7 kmh S
Wind Gusts 41.2 mph66.3 kmh -- 16.0 mph25.7 kmh
Humidity 91% 64% 82%
Pressure 29.95 in1014.2 mb 29.36 in994.2 mb -
Precipitation 0.36 in9.1 mm - -
Hour Temp Dew Point Humidity Winds Wind Gusts Pressure Precip Precip Rate Daily Precip Total
12:00 AM 26.4°F-3.1°C 17.6°F-8.0°C 69% 0.8 mph W1.3 kmh W 5.4 mph8.7 kmh 29.95 in1014.2 mb 0.00 in0.0 mm 0.00 in0.0 mm 0.00 in0.0 mm
12:15 AM 26.4°F-3.1°C 18.0°F-7.8°C 70% Calm Calm -- 29.95 in1014.2 mb 0.00 in0.0 mm 0.00 in0.0 mm 0.00 in0.0 mm
12:30 AM 26.4°F-3.1°C 18.0°F-7.8°C 70% 0.8 mph W1.3 kmh W 5.0 mph8.0 kmh 29.95 in1014.2 mb 0.00 in0.0 mm 0.00 in0.0 mm 0.00 in0.0 mm
12:45 AM 26.2°F-3.2°C 17.8°F-7.9°C 70% 0.3 mph W0.5 kmh W 3.9 mph6.3 kmh 29.92 in1013.2 mb 0.00 in0.0 mm 0.00 in0.0 mm 0.00 in0.0 mm
01:00 AM 26.1°F-3.3°C 17.6°F-8.0°C 70% Calm Calm -- 29.92 in1013.2 mb 0.00 in0.0 mm 0.00 in0.0 mm 0.00 in0.0 mm
01:15 AM 25.9°F-3.4°C 17.8°F-7.9°C 71% Calm Calm -- 29.92 in1013.2 mb 0.00 in0.0 mm 0.00 in0.0 mm 0.00 in0.0 mm
01:30 AM 25.5°F-3.6°C 17.7°F-7.9°C 72% Calm Calm -- 29.92 in1013.2 mb 0.00 in0.0 mm 0.00 in0.0 mm 0.00 in0.0 mm
01:45 AM 25.3°F-3.7°C 17.9°F-7.8°C 73% Calm Calm -- 29.92 in1013.2 mb 0.00 in0.0 mm 0.00 in0.0 mm 0.00 in0.0 mm
02:00 AM 25.5°F-3.6°C 18.4°F-7.6°C 74% 0.3 mph S0.5 kmh S 3.2 mph5.1 kmh 29.92 in1013.2 mb 0.00 in0.0 mm 0.00 in0.0 mm 0.00 in0.0 mm
02:15 AM 25.7°F-3.5°C 18.2°F-7.7°C 73% 0.1 mph S0.2 kmh S 2.5 mph4.0 kmh 29.92 in1013.2 mb 0.00 in0.0 mm 0.00 in0.0 mm 0.00 in0.0 mm
02:30 AM 26.2°F-3.2°C 19.1°F-7.2°C 74% Calm Calm -- 29.92 in1013.2 mb 0.00 in0.0 mm 0.00 in0.0 mm 0.00 in0.0 mm
02:45 AM 26.8°F-2.9°C 19.9°F-6.7°C 75% 0.1 mph S0.2 kmh S 2.1 mph3.4 kmh 29.92 in1013.2 mb 0.00 in0.0 mm 0.00 in0.0 mm 0.00 in0.0 mm
03:00 AM 27.3°F-2.6°C 20.4°F-6.4°C 75% 0.1 mph NW0.2 kmh NW 4.3 mph6.9 kmh 29.92 in1013.2 mb 0.00 in0.0 mm 0.00 in0.0 mm 0.00 in0.0 mm
03:15 AM 28.9°F-1.7°C 22.6°F-5.2°C 77% 3.6 mph SW5.8 kmh SW 7.5 mph12.1 kmh 29.92 in1013.2 mb 0.00 in0.0 mm 0.00 in0.0 mm 0.00 in0.0 mm
03:30 AM 31.5°F-0.3°C 25.7°F-3.5°C 79% 4.8 mph WSW7.7 kmh WSW 9.3 mph15.0 kmh 29.92 in1013.2 mb 0.00 in0.0 mm 0.00 in0.0 mm 0.00 in0.0 mm
03:45 AM 32.4°F0.2°C 26.6°F-3.0°C 79% 4.7 mph WSW7.6 kmh WSW 11.5 mph18.5 kmh 29.92 in1013.2 mb 0.00 in0.0 mm 0.00 in0.0 mm 0.00 in0.0 mm
04:00 AM 33.4°F0.8°C 27.9°F-2.3°C 80% 5.4 mph W8.7 kmh W 8.9 mph14.3 kmh 29.92 in1013.2 mb 0.00 in0.0 mm 0.00 in0.0 mm 0.00 in0.0 mm
04:15 AM 34.2°F1.2°C 28.6°F-1.9°C 80% 5.2 mph W8.4 kmh W 10.4 mph16.7 kmh 29.92 in1013.2 mb 0.00 in0.0 mm 0.00 in0.0 mm 0.00 in0.0 mm
04:30 AM 34.2°F1.2°C 28.6°F-1.9°C 80% 4.4 mph W7.1 kmh W 8.6 mph13.8 kmh 29.92 in1013.2 mb 0.00 in0.0 mm 0.00 in0.0 mm 0.00 in0.0 mm
04:45 AM 34.5°F1.4°C 29.0°F-1.7°C 80% 4.1 mph W6.6 kmh W 9.3 mph15.0 kmh 29.92 in1013.2 mb 0.00 in0.0 mm 0.00 in0.0 mm 0.00 in0.0 mm
05:00 AM 34.7°F1.5°C 29.5°F-1.4°C 81% 3.5 mph W5.6 kmh W 6.8 mph10.9 kmh 29.92 in1013.2 mb 0.00 in0.0 mm 0.00 in0.0 mm 0.00 in0.0 mm
05:15 AM 34.2°F1.2°C 28.6°F-1.9°C 80% 2.8 mph WSW4.5 kmh WSW 6.8 mph10.9 kmh 29.92 in1013.2 mb 0.00 in0.0 mm 0.00 in0.0 mm 0.00 in0.0 mm
05:30 AM 33.4°F0.8°C 27.9°F-2.3°C 80% 2.4 mph W3.9 kmh W 6.4 mph10.3 kmh 29.92 in1013.2 mb 0.00 in0.0 mm 0.00 in0.0 mm 0.00 in0.0 mm
05:45 AM 34.2°F1.2°C 29.2°F-1.6°C 82% 3.0 mph W4.8 kmh W 8.6 mph13.8 kmh 29.89 in1012.2 mb 0.00 in0.0 mm 0.00 in0.0 mm 0.00 in0.0 mm
06:00 AM 34.9°F1.6°C 30.2°F-1.0°C 83% 0.9 mph W1.4 kmh W 4.3 mph6.9 kmh 29.89 in1012.2 mb 0.00 in0.0 mm 0.00 in0.0 mm 0.00 in0.0 mm
06:15 AM 34.9°F1.6°C 30.2°F-1.0°C 83% 0.1 mph W0.2 kmh W 2.1 mph3.4 kmh 29.89 in1012.2 mb 0.00 in0.0 mm 0.00 in0.0 mm 0.00 in0.0 mm
06:30 AM 34.7°F1.5°C 30.1°F-1.1°C 83% Calm Calm -- 29.89 in1012.2 mb 0.00 in0.0 mm 0.00 in0.0 mm 0.00 in0.0 mm
06:45 AM 34.3°F1.3°C 29.7°F-1.3°C 83% 1.3 mph W2.1 kmh W 5.4 mph8.7 kmh 29.89 in1012.2 mb 0.00 in0.0 mm 0.00 in0.0 mm 0.00 in0.0 mm
07:00 AM 35.1°F1.7°C 30.7°F-0.7°C 84% Calm Calm -- 29.89 in1012.2 mb 0.00 in0.0 mm 0.00 in0.0 mm 0.00 in0.0 mm
07:15 AM 35.1°F1.7°C 30.7°F-0.7°C 84% 0.1 mph WNW0.2 kmh WNW 1.8 mph2.9 kmh 29.89 in1012.2 mb 0.00 in0.0 mm 0.00 in0.0 mm 0.00 in0.0 mm
07:30 AM 35.8°F2.1°C 31.7°F-0.2°C 85% 0.3 mph W0.5 kmh W 4.3 mph6.9 kmh 29.92 in1013.2 mb 0.00 in0.0 mm 0.00 in0.0 mm 0.00 in0.0 mm
07:45 AM 36.5°F2.5°C 32.4°F0.2°C 85% Calm Calm -- 29.92 in1013.2 mb 0.00 in0.0 mm 0.00 in0.0 mm 0.00 in0.0 mm
08:00 AM 37.2°F2.9°C 33.1°F0.6°C 85% 0.9 mph W1.4 kmh W 5.0 mph8.0 kmh 29.92 in1013.2 mb 0.00 in0.0 mm 0.00 in0.0 mm 0.00 in0.0 mm
08:15 AM 37.9°F3.3°C 33.8°F1.0°C 85% 2.9 mph W4.7 kmh W 6.1 mph9.8 kmh 29.89 in1012.2 mb 0.00 in0.0 mm 0.00 in0.0 mm 0.00 in0.0 mm
08:30 AM 38.3°F3.5°C 34.2°F1.2°C 85% 2.8 mph WSW4.5 kmh WSW 7.5 mph12.1 kmh 29.89 in1012.2 mb 0.00 in0.0 mm 0.00 in0.0 mm 0.00 in0.0 mm
08:45 AM 38.3°F3.5°C 34.2°F1.2°C 85% 3.0 mph W4.8 kmh W 8.9 mph14.3 kmh 29.89 in1012.2 mb 0.00 in0.0 mm 0.00 in0.0 mm 0.00 in0.0 mm
09:00 AM 38.3°F3.5°C 33.9°F1.1°C 84% 2.0 mph W3.2 kmh W 6.8 mph10.9 kmh 29.89 in1012.2 mb 0.00 in0.0 mm 0.00 in0.0 mm 0.00 in0.0 mm
09:15 AM 39.0°F3.9°C 34.9°F1.6°C 85% 0.2 mph W0.3 kmh W 4.3 mph6.9 kmh 29.86 in1011.2 mb 0.00 in0.0 mm 0.00 in0.0 mm 0.00 in0.0 mm
09:30 AM 39.2°F4.0°C 34.8°F1.6°C 84% 1.0 mph SW1.6 kmh SW 4.7 mph7.6 kmh 29.86 in1011.2 mb 0.00 in0.0 mm 0.00 in0.0 mm 0.00 in0.0 mm
09:45 AM 39.2°F4.0°C 34.8°F1.6°C 84% 0.5 mph S0.8 kmh S 5.4 mph8.7 kmh 29.92 in1013.2 mb 0.00 in0.0 mm 0.00 in0.0 mm 0.00 in0.0 mm
10:00 AM 39.0°F3.9°C 34.3°F1.3°C 83% 1.8 mph SW2.9 kmh SW 6.8 mph10.9 kmh 29.89 in1012.2 mb 0.00 in0.0 mm 0.00 in0.0 mm 0.00 in0.0 mm
10:15 AM 39.0°F3.9°C 34.6°F1.4°C 84% 2.1 mph SW3.4 kmh SW 6.1 mph9.8 kmh 29.89 in1012.2 mb 0.00 in0.0 mm 0.00 in0.0 mm 0.00 in0.0 mm
10:30 AM 39.6°F4.2°C 35.4°F1.9°C 85% 0.7 mph WSW1.1 kmh WSW 5.4 mph8.7 kmh 29.89 in1012.2 mb 0.00 in0.0 mm 0.00 in0.0 mm 0.00 in0.0 mm
10:45 AM 39.0°F3.9°C 34.6°F1.4°C 84% 3.9 mph SSW6.3 kmh SSW 8.6 mph13.8 kmh 29.89 in1012.2 mb 0.00 in0.0 mm 0.00 in0.0 mm 0.00 in0.0 mm
11:00 AM 39.7°F4.3°C 35.9°F2.2°C 86% 4.3 mph SSW6.9 kmh SSW 9.3 mph15.0 kmh 29.86 in1011.2 mb 0.00 in0.0 mm 0.00 in0.0 mm 0.00 in0.0 mm
11:15 AM 41.0°F5.0°C 37.4°F3.0°C 87% 4.6 mph SW7.4 kmh SW 9.3 mph15.0 kmh 29.86 in1011.2 mb 0.00 in0.0 mm 0.00 in0.0 mm 0.00 in0.0 mm
11:30 AM 41.2°F5.1°C 37.3°F2.9°C 86% 5.1 mph S8.2 kmh S 8.9 mph14.3 kmh 29.86 in1011.2 mb 0.00 in0.0 mm 0.00 in0.0 mm 0.00 in0.0 mm
11:45 AM 41.4°F5.2°C 37.5°F3.1°C 86% 6.6 mph S10.6 kmh S 15.0 mph24.1 kmh 29.83 in1010.2 mb 0.00 in0.0 mm 0.00 in0.0 mm 0.00 in0.0 mm
12:00 PM 41.5°F5.3°C 37.4°F3.0°C 85% 7.8 mph S12.6 kmh S 15.7 mph25.3 kmh 29.83 in1010.2 mb 0.00 in0.0 mm 0.00 in0.0 mm 0.00 in0.0 mm
12:15 PM 41.5°F5.3°C 37.1°F2.8°C 84% 8.2 mph SW13.2 kmh SW 15.0 mph24.1 kmh 29.83 in1010.2 mb 0.00 in0.0 mm 0.00 in0.0 mm 0.00 in0.0 mm
12:30 PM 41.9°F5.5°C 37.4°F3.0°C 84% 6.2 mph S10.0 kmh S 12.2 mph19.6 kmh 29.83 in1010.2 mb 0.00 in0.0 mm 0.00 in0.0 mm 0.00 in0.0 mm
12:45 PM 41.9°F5.5°C 37.4°F3.0°C 84% 6.1 mph SSW9.8 kmh SSW 12.5 mph20.1 kmh 29.83 in1010.2 mb 0.00 in0.0 mm 0.00 in0.0 mm 0.00 in0.0 mm
01:00 PM 42.3°F5.7°C 37.5°F3.1°C 83% 6.7 mph S10.8 kmh S 19.7 mph31.7 kmh 29.83 in1010.2 mb 0.00 in0.0 mm 0.00 in0.0 mm 0.00 in0.0 mm
01:15 PM 43.2°F6.2°C 38.0°F3.3°C 82% 5.9 mph S9.5 kmh S 15.4 mph24.8 kmh 29.80 in1009.1 mb 0.00 in0.0 mm 0.00 in0.0 mm 0.00 in0.0 mm
01:30 PM 43.3°F6.3°C 37.3°F2.9°C 79% 6.2 mph S10.0 kmh S 14.3 mph23.0 kmh 29.80 in1009.1 mb 0.00 in0.0 mm 0.00 in0.0 mm 0.00 in0.0 mm
01:45 PM 43.0°F6.1°C 35.3°F1.8°C 74% 8.0 mph S12.9 kmh S 20.4 mph32.8 kmh 29.80 in1009.1 mb 0.00 in0.0 mm 0.00 in0.0 mm 0.00 in0.0 mm
02:00 PM 43.0°F6.1°C 34.6°F1.4°C 72% 8.2 mph S13.2 kmh S 22.9 mph36.9 kmh 29.77 in1008.1 mb 0.00 in0.0 mm 0.00 in0.0 mm 0.00 in0.0 mm
02:15 PM 42.8°F6.0°C 34.0°F1.1°C 71% 5.8 mph S9.3 kmh S 15.4 mph24.8 kmh 29.77 in1008.1 mb 0.00 in0.0 mm 0.00 in0.0 mm 0.00 in0.0 mm
02:30 PM 43.0°F6.1°C 33.5°F0.8°C 69% 8.5 mph S13.7 kmh S 23.3 mph37.5 kmh 29.77 in1008.1 mb 0.00 in0.0 mm 0.00 in0.0 mm 0.00 in0.0 mm
02:45 PM 43.2°F6.2°C 33.3°F0.7°C 68% 6.9 mph S11.1 kmh S 22.5 mph36.2 kmh 29.77 in1008.1 mb 0.00 in0.0 mm 0.00 in0.0 mm 0.00 in0.0 mm
03:00 PM 43.3°F6.3°C 32.7°F0.4°C 66% 8.6 mph SSE13.8 kmh SSE 27.9 mph44.9 kmh 29.74 in1007.1 mb 0.00 in0.0 mm 0.00 in0.0 mm 0.00 in0.0 mm
03:15 PM 43.5°F6.4°C 32.5°F0.3°C 65% 7.6 mph SSE12.2 kmh SSE 17.5 mph28.2 kmh 29.71 in1006.1 mb 0.00 in0.0 mm 0.00 in0.0 mm 0.00 in0.0 mm
03:30 PM 43.2°F6.2°C 31.8°F-0.1°C 64% 10.8 mph S17.4 kmh S 28.3 mph45.5 kmh 29.68 in1005.1 mb 0.00 in0.0 mm 0.00 in0.0 mm 0.00 in0.0 mm
03:45 PM 42.6°F5.9°C 32.0°F0.0°C 66% 6.8 mph SSE10.9 kmh SSE 16.8 mph27.0 kmh 29.71 in1006.1 mb 0.00 in0.0 mm 0.00 in0.0 mm 0.00 in0.0 mm
04:00 PM 41.7°F5.4°C 32.7°F0.4°C 70% 8.7 mph SSE14.0 kmh SSE 24.7 mph39.8 kmh 29.68 in1005.1 mb 0.00 in0.0 mm 0.00 in0.0 mm 0.00 in0.0 mm
04:15 PM 41.2°F5.1°C 33.5°F0.8°C 74% 8.0 mph S12.9 kmh S 25.4 mph40.9 kmh 29.68 in1005.1 mb 0.00 in0.0 mm 0.00 in0.0 mm 0.00 in0.0 mm
04:30 PM 40.5°F4.7°C 34.1°F1.2°C 78% 8.7 mph SSE14.0 kmh SSE 22.5 mph36.2 kmh 29.65 in1004.1 mb 0.00 in0.0 mm 0.00 in0.0 mm 0.00 in0.0 mm
04:45 PM 39.7°F4.3°C 34.4°F1.3°C 81% 9.2 mph S14.8 kmh S 23.6 mph38.0 kmh 29.65 in1004.1 mb 0.00 in0.0 mm 0.00 in0.0 mm 0.00 in0.0 mm
05:00 PM 39.2°F4.0°C 34.5°F1.4°C 83% 8.6 mph S13.8 kmh S 20.8 mph33.5 kmh 29.65 in1004.1 mb 0.00 in0.0 mm 0.00 in0.0 mm 0.00 in0.0 mm
05:12 PM 39.2°F4.0°C 34.5°F1.4°C 83% 6.4 mph S10.3 kmh S 7.9 mph12.7 kmh 29.65 in1004.1 mb 0.00 in0.0 mm 0.00 in0.0 mm 0.00 in0.0 mm
05:13 PM 39.0°F3.9°C 34.3°F1.3°C 83% 8.4 mph S13.5 kmh S 12.9 mph20.8 kmh 29.65 in1004.1 mb 0.00 in0.0 mm 0.00 in0.0 mm 0.00 in0.0 mm
05:14 PM 39.0°F3.9°C 34.6°F1.4°C 84% 7.1 mph S11.4 kmh S 12.9 mph20.8 kmh 29.65 in1004.1 mb 0.00 in0.0 mm 0.00 in0.0 mm 0.00 in0.0 mm
05:15 PM 39.0°F3.9°C 34.6°F1.4°C 84% 5.7 mph S9.2 kmh S 12.9 mph20.8 kmh 29.65 in1004.1 mb 0.00 in0.0 mm 0.00 in0.0 mm 0.00 in0.0 mm
05:16 PM 39.0°F3.9°C 34.6°F1.4°C 84% 8.5 mph S13.7 kmh S 24.3 mph39.1 kmh 29.65 in1004.1 mb 0.00 in0.0 mm 0.00 in0.0 mm 0.00 in0.0 mm
05:17 PM 39.0°F3.9°C 34.6°F1.4°C 84% 8.0 mph S12.9 kmh S 24.3 mph39.1 kmh 29.65 in1004.1 mb 0.00 in0.0 mm 0.00 in0.0 mm 0.00 in0.0 mm
05:18 PM 39.0°F3.9°C 34.6°F1.4°C 84% 8.4 mph S13.5 kmh S 24.3 mph39.1 kmh 29.65 in1004.1 mb 0.00 in0.0 mm 0.00 in0.0 mm 0.00 in0.0 mm
05:19 PM 38.8°F3.8°C 34.4°F1.3°C 84% 8.9 mph S14.3 kmh S 24.3 mph39.1 kmh 29.65 in1004.1 mb 0.00 in0.0 mm 0.00 in0.0 mm 0.00 in0.0 mm
05:20 PM 38.8°F3.8°C 34.4°F1.3°C 84% 8.7 mph S14.0 kmh S 24.3 mph39.1 kmh 29.65 in1004.1 mb 0.00 in0.0 mm 0.00 in0.0 mm 0.00 in0.0 mm
05:21 PM 38.8°F3.8°C 34.4°F1.3°C 84% 8.2 mph S13.2 kmh S 24.3 mph39.1 kmh 29.65 in1004.1 mb 0.00 in0.0 mm 0.00 in0.0 mm 0.00 in0.0 mm
05:22 PM 38.8°F3.8°C 34.4°F1.3°C 84% 8.8 mph S14.2 kmh S 24.3 mph39.1 kmh 29.62 in1003.0 mb 0.00 in0.0 mm 0.00 in0.0 mm 0.00 in0.0 mm
05:23 PM 38.8°F3.8°C 34.4°F1.3°C 84% 9.4 mph S15.1 kmh S 24.3 mph39.1 kmh 29.62 in1003.0 mb 0.00 in0.0 mm 0.00 in0.0 mm 0.00 in0.0 mm
05:24 PM 38.8°F3.8°C 34.7°F1.5°C 85% 10.0 mph S16.1 kmh S 24.3 mph39.1 kmh 29.62 in1003.0 mb 0.00 in0.0 mm 0.00 in0.0 mm 0.00 in0.0 mm
05:25 PM 38.8°F3.8°C 34.7°F1.5°C 85% 10.6 mph S17.1 kmh S 24.3 mph39.1 kmh 29.62 in1003.0 mb 0.00 in0.0 mm 0.00 in0.0 mm 0.00 in0.0 mm
05:26 PM 38.8°F3.8°C 34.7°F1.5°C 85% 9.1 mph S14.6 kmh S 20.0 mph32.2 kmh 29.62 in1003.0 mb 0.00 in0.0 mm 0.00 in0.0 mm 0.00 in0.0 mm
05:27 PM 38.8°F3.8°C 34.7°F1.5°C 85% 9.3 mph S15.0 kmh S 20.0 mph32.2 kmh 29.62 in1003.0 mb 0.00 in0.0 mm 0.00 in0.0 mm 0.00 in0.0 mm
05:28 PM 38.8°F3.8°C 34.7°F1.5°C 85% 9.0 mph S14.5 kmh S 20.0 mph32.2 kmh 29.62 in1003.0 mb 0.00 in0.0 mm 0.00 in0.0 mm 0.00 in0.0 mm
05:29 PM 38.8°F3.8°C 34.7°F1.5°C 85% 8.8 mph S14.2 kmh S 20.0 mph32.2 kmh 29.62 in1003.0 mb 0.00 in0.0 mm 0.00 in0.0 mm 0.00 in0.0 mm
05:30 PM 38.8°F3.8°C 34.7°F1.5°C 85% 8.9 mph S14.3 kmh S 20.0 mph32.2 kmh 29.62 in1003.0 mb 0.00 in0.0 mm 0.00 in0.0 mm 0.00 in0.0 mm
05:31 PM 38.8°F3.8°C 34.7°F1.5°C 85% 9.2 mph S14.8 kmh S 20.0 mph32.2 kmh 29.62 in1003.0 mb 0.00 in0.0 mm 0.00 in0.0 mm 0.00 in0.0 mm
05:32 PM 38.7°F3.7°C 34.5°F1.4°C 85% 8.9 mph S14.3 kmh S 20.0 mph32.2 kmh 29.62 in1003.0 mb 0.00 in0.0 mm 0.00 in0.0 mm 0.00 in0.0 mm
05:45 PM 38.5°F3.6°C 34.9°F1.6°C 87% 10.9 mph S17.5 kmh S 25.8 mph41.5 kmh 29.59 in1002.0 mb 0.00 in0.0 mm 0.00 in0.0 mm 0.00 in0.0 mm
06:00 PM 38.3°F3.5°C 35.1°F1.7°C 88% 9.8 mph S15.8 kmh S 21.1 mph34.0 kmh 29.59 in1002.0 mb 0.05 in1.3 mm 0.07 in1.8 mm 0.05 in1.3 mm
06:15 PM 38.1°F3.4°C 34.9°F1.6°C 88% 8.6 mph SSE13.8 kmh SSE 17.5 mph28.2 kmh 29.62 in1003.0 mb 0.05 in1.3 mm 0.00 in0.0 mm 0.05 in1.3 mm
06:30 PM 38.1°F3.4°C 35.2°F1.8°C 89% 11.4 mph SSE18.3 kmh SSE 27.9 mph44.9 kmh 29.59 in1002.0 mb 0.05 in1.3 mm 0.00 in0.0 mm 0.05 in1.3 mm
06:45 PM 38.1°F3.4°C 35.4°F1.9°C 90% 9.3 mph S15.0 kmh S 27.2 mph43.8 kmh 29.59 in1002.0 mb 0.05 in1.3 mm 0.00 in0.0 mm 0.05 in1.3 mm
07:00 PM 38.3°F3.5°C 35.6°F2.0°C 90% 10.8 mph SSE17.4 kmh SSE 24.3 mph39.1 kmh 29.56 in1001.0 mb 0.00 in0.0 mm 0.00 in0.0 mm 0.05 in1.3 mm
07:15 PM 38.3°F3.5°C 35.6°F2.0°C 90% 7.1 mph SSE11.4 kmh SSE 16.1 mph25.9 kmh 29.53 in1000.0 mb 0.00 in0.0 mm 0.00 in0.0 mm 0.05 in1.3 mm
07:30 PM 38.3°F3.5°C 35.6°F2.0°C 90% 7.3 mph SSE11.7 kmh SSE 20.0 mph32.2 kmh 29.53 in1000.0 mb 0.00 in0.0 mm 0.00 in0.0 mm 0.05 in1.3 mm
07:45 PM 38.7°F3.7°C 36.3°F2.4°C 91% 13.3 mph SSE21.4 kmh SSE 30.8 mph49.6 kmh 29.53 in1000.0 mb 0.00 in0.0 mm 0.00 in0.0 mm 0.05 in1.3 mm
08:00 PM 38.7°F3.7°C 36.3°F2.4°C 91% 10.2 mph SSE16.4 kmh SSE 26.5 mph42.6 kmh 29.53 in1000.0 mb 0.00 in0.0 mm 0.00 in0.0 mm 0.05 in1.3 mm
08:15 PM 38.7°F3.7°C 36.0°F2.2°C 90% 9.7 mph S15.6 kmh S 28.6 mph46.0 kmh 29.53 in1000.0 mb 0.00 in0.0 mm 0.00 in0.0 mm 0.05 in1.3 mm
08:30 PM 38.7°F3.7°C 36.0°F2.2°C 90% 9.1 mph SE14.6 kmh SE 25.4 mph40.9 kmh 29.50 in999.0 mb 0.05 in1.3 mm 0.20 in5.1 mm 0.10 in2.5 mm
08:45 PM 38.7°F3.7°C 36.0°F2.2°C 90% 10.6 mph SSE17.1 kmh SSE 31.9 mph51.3 kmh 29.50 in999.0 mb 0.05 in1.3 mm 0.00 in0.0 mm 0.10 in2.5 mm
09:00 PM 38.7°F3.7°C 36.0°F2.2°C 90% 11.3 mph SSE18.2 kmh SSE 40.4 mph65.0 kmh 29.47 in998.0 mb 0.05 in1.3 mm 0.00 in0.0 mm 0.10 in2.5 mm
09:15 PM 38.5°F3.6°C 35.8°F2.1°C 90% 9.3 mph S15.0 kmh S 27.6 mph44.4 kmh 29.45 in997.3 mb 0.05 in1.3 mm 0.00 in0.0 mm 0.10 in2.5 mm
09:30 PM 38.3°F3.5°C 35.6°F2.0°C 90% 8.9 mph SSE14.3 kmh SSE 27.6 mph44.4 kmh 29.47 in998.0 mb 0.00 in0.0 mm 0.00 in0.0 mm 0.10 in2.5 mm
09:45 PM 38.1°F3.4°C 35.4°F1.9°C 90% 10.2 mph S16.4 kmh S 28.6 mph46.0 kmh 29.45 in997.3 mb 0.06 in1.5 mm 0.24 in6.1 mm 0.16 in4.1 mm
10:00 PM 37.8°F3.2°C 34.8°F1.6°C 89% 14.7 mph SSE23.7 kmh SSE 36.5 mph58.7 kmh 29.45 in997.3 mb 0.06 in1.5 mm 0.00 in0.0 mm 0.16 in4.1 mm
10:15 PM 37.4°F3.0°C 34.7°F1.5°C 90% 11.6 mph S18.7 kmh S 41.2 mph66.3 kmh 29.41 in995.9 mb 0.11 in2.8 mm 0.20 in5.1 mm 0.21 in5.3 mm
10:30 PM 37.0°F2.8°C 34.4°F1.3°C 90% 14.1 mph S22.7 kmh S 33.6 mph54.1 kmh 29.41 in995.9 mb 0.11 in2.8 mm 0.00 in0.0 mm 0.21 in5.3 mm
10:45 PM 36.9°F2.7°C 34.2°F1.2°C 90% 9.0 mph SSE14.5 kmh SSE 30.1 mph48.4 kmh 29.41 in995.9 mb 0.10 in2.5 mm 0.00 in0.0 mm 0.26 in6.6 mm
11:00 PM 36.9°F2.7°C 34.2°F1.2°C 90% 10.7 mph SSE17.2 kmh SSE 26.8 mph43.1 kmh 29.39 in995.3 mb 0.10 in2.5 mm 0.00 in0.0 mm 0.26 in6.6 mm
11:15 PM 36.9°F2.7°C 34.2°F1.2°C 90% 9.3 mph S15.0 kmh S 27.6 mph44.4 kmh 29.36 in994.2 mb 0.10 in2.5 mm 0.00 in0.0 mm 0.31 in7.9 mm
11:30 PM 36.9°F2.7°C 34.5°F1.4°C 91% 11.1 mph S17.9 kmh S 27.9 mph44.9 kmh 29.36 in994.2 mb 0.10 in2.5 mm 0.00 in0.0 mm 0.31 in7.9 mm
11:45 PM 36.9°F2.7°C 34.5°F1.4°C 91% 9.0 mph SSE14.5 kmh SSE 20.8 mph33.5 kmh 29.36 in994.2 mb 0.10 in2.5 mm 0.00 in0.0 mm 0.36 in9.1 mm